sensor_id;sensor_type;location;lat;lon;timestamp;temperature;humidity
25170;DHT22;13129;48.012;10.352;2024-02-14T06:29:33;4.90;99.90
25170;DHT22;13129;48.012;10.352;2024-02-14T06:31:58;5.00;99.90
25170;DHT22;13129;48.012;10.352;2024-02-14T06:34:24;5.00;99.90
25170;DHT22;13129;48.012;10.352;2024-02-14T06:36:51;5.00;99.90
25170;DHT22;13129;48.012;10.352;2024-02-14T06:39:16;5.10;99.90
25170;DHT22;13129;48.012;10.352;2024-02-14T06:41:42;5.10;99.90
25170;DHT22;13129;48.012;10.352;2024-02-14T06:44:10;5.20;99.90
25170;DHT22;13129;48.012;10.352;2024-02-14T06:46:36;5.20;99.90
25170;DHT22;13129;48.012;10.352;2024-02-14T06:49:03;5.20;99.90
25170;DHT22;13129;48.012;10.352;2024-02-14T06:51:28;5.30;99.90
25170;DHT22;13129;48.012;10.352;2024-02-14T06:53:55;5.30;99.90
25170;DHT22;13129;48.012;10.352;2024-02-14T06:56:21;5.40;99.90
25170;DHT22;13129;48.012;10.352;2024-02-14T06:58:46;5.40;99.90
25170;DHT22;13129;48.012;10.352;2024-02-14T07:01:17;5.50;99.90
25170;DHT22;13129;48.012;10.352;2024-02-14T07:03:47;5.50;99.90
25170;DHT22;13129;48.012;10.352;2024-02-14T07:06:13;5.60;99.90
25170;DHT22;13129;48.012;10.352;2024-02-14T07:08:40;5.70;99.90
25170;DHT22;13129;48.012;10.352;2024-02-14T07:11:05;5.80;99.90
25170;DHT22;13129;48.012;10.352;2024-02-14T07:13:34;5.80;99.90
25170;DHT22;13129;48.012;10.352;2024-02-14T07:16:03;5.90;99.90
25170;DHT22;13129;48.012;10.352;2024-02-14T07:18:34;6.00;99.90
25170;DHT22;13129;48.012;10.352;2024-02-14T07:20:59;6.00;99.90
25170;DHT22;13129;48.012;10.352;2024-02-14T07:23:25;6.00;99.90
25170;DHT22;13129;48.012;10.352;2024-02-14T07:25:51;6.10;99.90
25170;DHT22;13129;48.012;10.352;2024-02-14T07:28:17;6.10;99.90
25170;DHT22;13129;48.012;10.352;2024-02-14T07:30:43;6.10;99.90
25170;DHT22;13129;48.012;10.352;2024-02-14T07:33:08;6.10;99.90
25170;DHT22;13129;48.012;10.352;2024-02-14T07:35:35;6.20;99.90
25170;DHT22;13129;48.012;10.352;2024-02-14T07:38:01;6.30;99.90
25170;DHT22;13129;48.012;10.352;2024-02-14T07:40:27;6.50;99.90
25170;DHT22;13129;48.012;10.352;2024-02-14T07:42:59;6.60;99.90
25170;DHT22;13129;48.012;10.352;2024-02-14T07:45:25;6.70;99.90
25170;DHT22;13129;48.012;10.352;2024-02-14T07:48:00;6.90;99.90
25170;DHT22;13129;48.012;10.352;2024-02-14T07:50:31;6.90;99.90
25170;DHT22;13129;48.012;10.352;2024-02-14T07:52:57;7.20;99.90
25170;DHT22;13129;48.012;10.352;2024-02-14T07:55:23;7.40;99.90
25170;DHT22;13129;48.012;10.352;2024-02-14T07:57:49;7.80;99.90
25170;DHT22;13129;48.012;10.352;2024-02-14T08:00:15;8.10;99.90
25170;DHT22;13129;48.012;10.352;2024-02-14T10:47:19;16.90;69.20
25170;DHT22;13129;48.012;10.352;2024-02-14T10:49:46;17.40;67.90
25170;DHT22;13129;48.012;10.352;2024-02-14T10:52:13;18.00;64.90
25170;DHT22;13129;48.012;10.352;2024-02-14T10:54:41;17.70;63.40
25170;DHT22;13129;48.012;10.352;2024-02-14T10:57:08;18.10;64.10
25170;DHT22;13129;48.012;10.352;2024-02-14T10:59:38;18.70;60.70
25170;DHT22;13129;48.012;10.352;2024-02-14T11:02:07;19.20;60.00
25170;DHT22;13129;48.012;10.352;2024-02-14T11:04:32;20.90;57.90
25170;DHT22;13129;48.012;10.352;2024-02-14T11:06:58;20.80;56.00
25170;DHT22;13129;48.012;10.352;2024-02-14T11:09:31;21.10;55.90
25170;DHT22;13129;48.012;10.352;2024-02-14T11:12:02;20.60;54.10
25170;DHT22;13129;48.012;10.352;2024-02-14T11:14:32;19.50;54.00
25170;DHT22;13129;48.012;10.352;2024-02-14T11:16:59;18.10;57.30
25170;DHT22;13129;48.012;10.352;2024-02-14T11:19:30;16.80;60.40
25170;DHT22;13129;48.012;10.352;2024-02-14T11:21:58;15.50;64.30
25170;DHT22;13129;48.012;10.352;2024-02-14T11:24:26;14.70;67.10
25170;DHT22;13129;48.012;10.352;2024-02-14T11:26:53;14.20;69.20
25170;DHT22;13129;48.012;10.352;2024-02-14T11:29:20;13.80;70.40
25170;DHT22;13129;48.012;10.352;2024-02-14T11:31:46;13.60;71.20
25170;DHT22;13129;48.012;10.352;2024-02-14T11:34:13;13.30;71.80
25170;DHT22;13129;48.012;10.352;2024-02-14T11:36:43;13.40;72.10
25170;DHT22;13129;48.012;10.352;2024-02-14T11:39:08;13.90;71.00
25170;DHT22;13129;48.012;10.352;2024-02-14T11:41:34;14.10;70.30
25170;DHT22;13129;48.012;10.352;2024-02-14T11:44:03;14.10;70.20
25170;DHT22;13129;48.012;10.352;2024-02-14T11:46:32;14.10;70.30
25170;DHT22;13129;48.012;10.352;2024-02-14T11:49:02;14.60;69.90
25170;DHT22;13129;48.012;10.352;2024-02-14T11:51:28;15.10;68.10
25170;DHT22;13129;48.012;10.352;2024-02-14T11:53:54;15.20;66.90
25170;DHT22;13129;48.012;10.352;2024-02-14T11:56:23;14.90;66.90
25170;DHT22;13129;48.012;10.352;2024-02-14T11:58:51;14.50;67.20
25170;DHT22;13129;48.012;10.352;2024-02-14T12:01:17;14.20;68.40
25170;DHT22;13129;48.012;10.352;2024-02-14T12:03:43;14.10;69.50
25170;DHT22;13129;48.012;10.352;2024-02-14T12:06:09;14.20;70.20
25170;DHT22;13129;48.012;10.352;2024-02-14T12:08:35;14.30;70.70
25170;DHT22;13129;48.012;10.352;2024-02-14T12:11:01;14.60;70.80
25170;DHT22;13129;48.012;10.352;2024-02-14T12:13:26;14.50;70.60
25170;DHT22;13129;48.012;10.352;2024-02-14T12:15:52;14.30;70.90
25170;DHT22;13129;48.012;10.352;2024-02-14T12:18:18;14.20;71.70
25170;DHT22;13129;48.012;10.352;2024-02-14T12:20:44;14.30;72.60
25170;DHT22;13129;48.012;10.352;2024-02-14T12:23:14;14.20;73.30
25170;DHT22;13129;48.012;10.352;2024-02-14T12:25:42;14.20;74.60
25170;DHT22;13129;48.012;10.352;2024-02-14T12:28:08;14.10;75.90
25170;DHT22;13129;48.012;10.352;2024-02-14T12:33:12;14.10;75.70
25170;DHT22;13129;48.012;10.352;2024-02-14T12:35:40;14.20;75.70
25170;DHT22;13129;48.012;10.352;2024-02-14T12:38:08;14.20;75.90
25170;DHT22;13129;48.012;10.352;2024-02-14T12:40:35;14.20;76.00
25170;DHT22;13129;48.012;10.352;2024-02-14T12:43:00;14.30;76.50
25170;DHT22;13129;48.012;10.352;2024-02-14T12:45:26;14.70;76.70
25170;DHT22;13129;48.012;10.352;2024-02-14T12:47:52;14.80;75.60
25170;DHT22;13129;48.012;10.352;2024-02-14T12:50:18;14.90;75.80
25170;DHT22;13129;48.012;10.352;2024-02-14T12:52:45;14.80;76.00
25170;DHT22;13129;48.012;10.352;2024-02-14T12:55:11;14.80;76.30
25170;DHT22;13129;48.012;10.352;2024-02-14T12:57:37;14.70;76.90
25170;DHT22;13129;48.012;10.352;2024-02-14T13:00:02;14.50;77.20
25170;DHT22;13129;48.012;10.352;2024-02-14T13:02:34;14.40;77.90
25170;DHT22;13129;48.012;10.352;2024-02-14T13:04:59;14.40;78.50
25170;DHT22;13129;48.012;10.352;2024-02-14T13:07:24;14.20;79.20
25170;DHT22;13129;48.012;10.352;2024-02-14T13:09:51;14.10;79.80
25170;DHT22;13129;48.012;10.352;2024-02-14T13:12:17;13.80;80.60
25170;DHT22;13129;48.012;10.352;2024-02-14T13:14:42;13.70;81.00
25170;DHT22;13129;48.012;10.352;2024-02-14T13:17:09;13.60;81.30
25170;DHT22;13129;48.012;10.352;2024-02-14T13:19:36;13.50;82.10
25170;DHT22;13129;48.012;10.352;2024-02-14T13:22:01;13.60;82.20
25170;DHT22;13129;48.012;10.352;2024-02-14T13:24:27;13.80;82.50
25170;DHT22;13129;48.012;10.352;2024-02-14T13:26:53;13.90;82.40
25170;DHT22;13129;48.012;10.352;2024-02-14T13:29:19;14.00;82.20
25170;DHT22;13129;48.012;10.352;2024-02-14T13:31:44;14.00;82.10
25170;DHT22;13129;48.012;10.352;2024-02-14T13:34:10;13.90;83.50
25170;DHT22;13129;48.012;10.352;2024-02-14T13:36:37;13.80;83.10
25170;DHT22;13129;48.012;10.352;2024-02-14T13:39:02;13.60;84.30
25170;DHT22;13129;48.012;10.352;2024-02-14T13:41:28;13.50;84.90
25170;DHT22;13129;48.012;10.352;2024-02-14T13:43:53;13.50;85.60
25170;DHT22;13129;48.012;10.352;2024-02-14T13:46:19;13.40;86.00
25170;DHT22;13129;48.012;10.352;2024-02-14T13:48:45;13.40;86.50
25170;DHT22;13129;48.012;10.352;2024-02-14T13:51:10;13.30;88.30
25170;DHT22;13129;48.012;10.352;2024-02-14T13:53:36;13.30;89.40
25170;DHT22;13129;48.012;10.352;2024-02-14T13:56:01;13.30;90.00
25170;DHT22;13129;48.012;10.352;2024-02-14T13:58:27;13.20;90.20
25170;DHT22;13129;48.012;10.352;2024-02-14T14:00:53;13.20;90.50
25170;DHT22;13129;48.012;10.352;2024-02-14T14:03:18;13.20;90.50
25170;DHT22;13129;48.012;10.352;2024-02-14T14:05:44;13.20;90.60
25170;DHT22;13129;48.012;10.352;2024-02-14T14:08:09;13.10;90.40
25170;DHT22;13129;48.012;10.352;2024-02-14T14:10:35;13.10;90.60
25170;DHT22;13129;48.012;10.352;2024-02-14T14:13:00;12.90;90.60
25170;DHT22;13129;48.012;10.352;2024-02-14T14:15:26;12.80;90.90
25170;DHT22;13129;48.012;10.352;2024-02-14T14:17:52;12.80;91.20
25170;DHT22;13129;48.012;10.352;2024-02-14T14:20:17;12.80;91.50
25170;DHT22;13129;48.012;10.352;2024-02-14T14:22:44;12.70;91.70
25170;DHT22;13129;48.012;10.352;2024-02-14T14:25:09;12.50;91.80
25170;DHT22;13129;48.012;10.352;2024-02-14T14:27:35;12.60;92.10
25170;DHT22;13129;48.012;10.352;2024-02-14T14:30:00;12.50;92.30
25170;DHT22;13129;48.012;10.352;2024-02-14T14:32:26;12.40;92.40
25170;DHT22;13129;48.012;10.352;2024-02-14T14:34:51;12.40;92.60
25170;DHT22;13129;48.012;10.352;2024-02-14T14:37:17;12.30;92.90
25170;DHT22;13129;48.012;10.352;2024-02-14T14:39:42;12.20;93.00
25170;DHT22;13129;48.012;10.352;2024-02-14T14:42:10;12.20;93.40
25170;DHT22;13129;48.012;10.352;2024-02-14T14:44:36;12.00;93.70
25170;DHT22;13129;48.012;10.352;2024-02-14T14:47:23;12.00;93.80
25170;DHT22;13129;48.012;10.352;2024-02-14T14:49:48;12.00;94.30
25170;DHT22;13129;48.012;10.352;2024-02-14T14:52:14;11.90;94.10
25170;DHT22;13129;48.012;10.352;2024-02-14T14:54:40;11.70;94.30
25170;DHT22;13129;48.012;10.352;2024-02-14T14:57:05;11.70;94.50
25170;DHT22;13129;48.012;10.352;2024-02-14T14:59:36;11.60;94.70
25170;DHT22;13129;48.012;10.352;2024-02-14T15:02:02;11.60;94.90
25170;DHT22;13129;48.012;10.352;2024-02-14T15:04:28;11.60;95.10
25170;DHT22;13129;48.012;10.352;2024-02-14T15:06:53;11.60;95.30
25170;DHT22;13129;48.012;10.352;2024-02-14T15:09:20;11.60;95.40
25170;DHT22;13129;48.012;10.352;2024-02-14T15:11:45;11.60;95.40
25170;DHT22;13129;48.012;10.352;2024-02-14T15:14:11;11.60;95.50
25170;DHT22;13129;48.012;10.352;2024-02-14T15:16:36;11.60;95.60
25170;DHT22;13129;48.012;10.352;2024-02-14T15:19:02;11.60;95.70
25170;DHT22;13129;48.012;10.352;2024-02-14T15:21:28;11.60;95.80
25170;DHT22;13129;48.012;10.352;2024-02-14T15:23:53;11.60;95.80
25170;DHT22;13129;48.012;10.352;2024-02-14T15:44:41;11.10;97.30
25170;DHT22;13129;48.012;10.352;2024-02-14T15:47:07;10.90;97.50
25170;DHT22;13129;48.012;10.352;2024-02-14T15:49:33;11.00;97.80
25170;DHT22;13129;48.012;10.352;2024-02-14T15:52:00;10.90;98.00
25170;DHT22;13129;48.012;10.352;2024-02-14T15:54:26;10.90;98.20
25170;DHT22;13129;48.012;10.352;2024-02-14T15:56:52;10.80;98.40
25170;DHT22;13129;48.012;10.352;2024-02-14T15:59:17;10.80;98.60
25170;DHT22;13129;48.012;10.352;2024-02-14T16:01:43;10.70;98.90
25170;DHT22;13129;48.012;10.352;2024-02-14T16:04:08;10.70;99.20
25170;DHT22;13129;48.012;10.352;2024-02-14T16:06:34;10.60;99.40
25170;DHT22;13129;48.012;10.352;2024-02-14T16:09:02;10.60;99.70
25170;DHT22;13129;48.012;10.352;2024-02-14T16:11:31;10.50;99.90
25170;DHT22;13129;48.012;10.352;2024-02-14T16:13:57;10.50;99.90
25170;DHT22;13129;48.012;10.352;2024-02-14T16:16:22;10.40;99.90
25170;DHT22;13129;48.012;10.352;2024-02-14T16:18:48;10.30;99.90
25170;DHT22;13129;48.012;10.352;2024-02-14T16:21:13;10.30;99.90
25170;DHT22;13129;48.012;10.352;2024-02-14T16:23:39;10.30;99.90
25170;DHT22;13129;48.012;10.352;2024-02-14T16:26:04;10.20;99.90
25170;DHT22;13129;48.012;10.352;2024-02-14T16:28:30;10.20;99.90
25170;DHT22;13129;48.012;10.352;2024-02-14T16:30:55;10.10;99.90
25170;DHT22;13129;48.012;10.352;2024-02-14T16:33:21;10.10;99.90
25170;DHT22;13129;48.012;10.352;2024-02-14T16:35:46;9.90;99.90
25170;DHT22;13129;48.012;10.352;2024-02-14T16:38:12;9.90;99.90
25170;DHT22;13129;48.012;10.352;2024-02-14T16:40:37;9.80;99.90
25170;DHT22;13129;48.012;10.352;2024-02-14T16:43:05;9.70;99.90
25170;DHT22;13129;48.012;10.352;2024-02-14T17:24:52;8.70;99.90
25170;DHT22;13129;48.012;10.352;2024-02-14T17:27:39;8.60;99.90
25170;DHT22;13129;48.012;10.352;2024-02-14T17:30:40;8.60;99.90
25170;DHT22;13129;48.012;10.352;2024-02-14T17:33:05;8.60;99.90
25170;DHT22;13129;48.012;10.352;2024-02-14T17:35:31;8.60;99.90
25170;DHT22;13129;48.012;10.352;2024-02-14T17:37:56;8.50;99.90
25170;DHT22;13129;48.012;10.352;2024-02-14T17:40:22;8.50;99.90
25170;DHT22;13129;48.012;10.352;2024-02-14T17:42:47;8.40;99.90
25170;DHT22;13129;48.012;10.352;2024-02-14T17:45:13;8.40;99.90
25170;DHT22;13129;48.012;10.352;2024-02-14T17:47:45;8.50;99.90
25170;DHT22;13129;48.012;10.352;2024-02-14T17:50:11;8.40;99.90
25170;DHT22;13129;48.012;10.352;2024-02-14T17:52:37;8.40;99.90
25170;DHT22;13129;48.012;10.352;2024-02-14T22:45:45;7.30;99.90
25170;DHT22;13129;48.012;10.352;2024-02-14T22:48:11;7.30;99.90
25170;DHT22;13129;48.012;10.352;2024-02-14T22:50:37;7.30;99.90
25170;DHT22;13129;48.012;10.352;2024-02-14T22:53:03;7.30;99.90
25170;DHT22;13129;48.012;10.352;2024-02-14T22:55:29;7.30;99.90
25170;DHT22;13129;48.012;10.352;2024-02-14T22:57:56;7.30;99.90
25170;DHT22;13129;48.012;10.352;2024-02-14T23:00:21;7.20;99.90
25170;DHT22;13129;48.012;10.352;2024-02-14T23:02:49;7.30;99.90
25170;DHT22;13129;48.012;10.352;2024-02-14T23:05:15;7.30;99.90
25170;DHT22;13129;48.012;10.352;2024-02-14T23:07:48;7.30;99.90
25170;DHT22;13129;48.012;10.352;2024-02-14T23:10:14;7.30;99.90
25170;DHT22;13129;48.012;10.352;2024-02-14T23:12:41;7.20;99.90
25170;DHT22;13129;48.012;10.352;2024-02-14T23:15:07;7.20;99.90
25170;DHT22;13129;48.012;10.352;2024-02-14T23:17:34;7.20;99.90
25170;DHT22;13129;48.012;10.352;2024-02-14T23:20:01;7.20;99.90
25170;DHT22;13129;48.012;10.352;2024-02-14T23:22:26;7.10;99.90
25170;DHT22;13129;48.012;10.352;2024-02-14T23:24:51;7.00;99.90
25170;DHT22;13129;48.012;10.352;2024-02-14T23:27:17;7.00;99.90
25170;DHT22;13129;48.012;10.352;2024-02-14T23:29:42;6.90;99.90
25170;DHT22;13129;48.012;10.352;2024-02-14T23:32:08;6.90;99.90
25170;DHT22;13129;48.012;10.352;2024-02-14T23:34:33;6.90;99.90
25170;DHT22;13129;48.012;10.352;2024-02-14T23:37:00;6.90;99.90
25170;DHT22;13129;48.012;10.352;2024-02-14T23:39:26;7.00;99.90
25170;DHT22;13129;48.012;10.352;2024-02-14T23:41:51;7.10;99.90
25170;DHT22;13129;48.012;10.352;2024-02-14T23:44:17;7.10;99.90
25170;DHT22;13129;48.012;10.352;2024-02-14T23:46:43;7.10;99.90
25170;DHT22;13129;48.012;10.352;2024-02-14T23:49:08;7.20;99.90
25170;DHT22;13129;48.012;10.352;2024-02-14T23:51:36;7.10;99.90
25170;DHT22;13129;48.012;10.352;2024-02-14T23:54:02;7.20;99.90
25170;DHT22;13129;48.012;10.352;2024-02-14T23:56:27;7.10;99.90
25170;DHT22;13129;48.012;10.352;2024-02-14T23:58:53;7.00;99.90
